sensor_id;sensor_type;location;lat;lon;timestamp;pressure;altitude;pressure_sealevel;temperature;humidity
7834;BME280;3962;42.696;23.354;2023-01-01T00:01:09;96653.44;;;4.44;93.65
7834;BME280;3962;42.696;23.354;2023-01-01T00:03:39;96659.66;;;4.43;94.34
7834;BME280;3962;42.696;23.354;2023-01-01T00:06:06;96653.03;;;4.35;93.96
7834;BME280;3962;42.696;23.354;2023-01-01T00:08:33;96660.94;;;4.18;93.59
7834;BME280;3962;42.696;23.354;2023-01-01T00:11:00;96669.00;;;4.15;93.81
7834;BME280;3962;42.696;23.354;2023-01-01T00:13:26;96654.44;;;4.08;94.25
7834;BME280;3962;42.696;23.354;2023-01-01T00:15:53;96663.50;;;4.02;94.19
7834;BME280;3962;42.696;23.354;2023-01-01T00:18:20;96668.88;;;3.99;93.83
7834;BME280;3962;42.696;23.354;2023-01-01T00:20:48;96652.13;;;3.83;94.17
7834;BME280;3962;42.696;23.354;2023-01-01T00:23:15;96660.72;;;3.87;93.69
7834;BME280;3962;42.696;23.354;2023-01-01T00:25:42;96668.16;;;3.79;94.11
7834;BME280;3962;42.696;23.354;2023-01-01T00:28:08;96662.47;;;3.69;94.49
7834;BME280;3962;42.696;23.354;2023-01-01T00:30:38;96678.56;;;3.63;94.57
7834;BME280;3962;42.696;23.354;2023-01-01T00:33:06;96675.13;;;3.61;94.57
7834;BME280;3962;42.696;23.354;2023-01-01T00:35:32;96674.56;;;3.55;94.65
7834;BME280;3962;42.696;23.354;2023-01-01T00:38:01;96659.78;;;3.52;95.23
7834;BME280;3962;42.696;23.354;2023-01-01T00:40:27;96664.75;;;3.58;94.96
7834;BME280;3962;42.696;23.354;2023-01-01T00:42:54;96662.84;;;3.62;95.12
7834;BME280;3962;42.696;23.354;2023-01-01T00:45:22;96665.47;;;3.62;95.01
7834;BME280;3962;42.696;23.354;2023-01-01T00:47:49;96681.97;;;3.65;95.27
7834;BME280;3962;42.696;23.354;2023-01-01T00:50:17;96673.22;;;3.65;95.47
7834;BME280;3962;42.696;23.354;2023-01-01T00:52:44;96673.91;;;3.68;95.09
7834;BME280;3962;42.696;23.354;2023-01-01T00:55:12;96668.97;;;3.62;95.02
7834;BME280;3962;42.696;23.354;2023-01-01T00:57:39;96673.56;;;3.76;95.45
7834;BME280;3962;42.696;23.354;2023-01-01T01:00:07;96681.47;;;3.76;95.20
7834;BME280;3962;42.696;23.354;2023-01-01T01:02:34;96671.94;;;3.73;94.96
7834;BME280;3962;42.696;23.354;2023-01-01T01:05:01;96672.56;;;3.78;94.94
7834;BME280;3962;42.696;23.354;2023-01-01T01:07:36;96663.53;;;3.84;94.68
7834;BME280;3962;42.696;23.354;2023-01-01T01:10:05;96666.56;;;3.93;94.33
7834;BME280;3962;42.696;23.354;2023-01-01T01:12:34;96672.22;;;4.03;94.92
7834;BME280;3962;42.696;23.354;2023-01-01T01:15:01;96672.94;;;4.06;95.11
7834;BME280;3962;42.696;23.354;2023-01-01T01:17:28;96676.75;;;4.18;95.51
7834;BME280;3962;42.696;23.354;2023-01-01T01:19:55;96681.00;;;4.03;93.14
7834;BME280;3962;42.696;23.354;2023-01-01T01:22:21;96676.97;;;3.78;92.80
7834;BME280;3962;42.696;23.354;2023-01-01T01:24:49;96662.47;;;3.69;92.37
7834;BME280;3962;42.696;23.354;2023-01-01T01:27:16;96661.13;;;3.61;93.25
7834;BME280;3962;42.696;23.354;2023-01-01T01:29:44;96651.13;;;3.50;93.65
7834;BME280;3962;42.696;23.354;2023-01-01T01:32:11;96650.19;;;3.51;93.66
7834;BME280;3962;42.696;23.354;2023-01-01T01:34:38;96655.38;;;3.53;93.91
7834;BME280;3962;42.696;23.354;2023-01-01T01:37:05;96654.66;;;3.49;93.73
7834;BME280;3962;42.696;23.354;2023-01-01T01:39:32;96654.03;;;3.44;94.47
7834;BME280;3962;42.696;23.354;2023-01-01T01:41:59;96657.16;;;3.52;93.95
7834;BME280;3962;42.696;23.354;2023-01-01T01:45:00;96654.94;;;3.62;94.65
7834;BME280;3962;42.696;23.354;2023-01-01T01:47:32;96655.00;;;3.60;94.17
7834;BME280;3962;42.696;23.354;2023-01-01T01:50:06;96655.44;;;3.51;93.83
7834;BME280;3962;42.696;23.354;2023-01-01T01:52:37;96656.81;;;3.42;93.64
7834;BME280;3962;42.696;23.354;2023-01-01T01:55:07;96661.00;;;3.45;94.60
7834;BME280;3962;42.696;23.354;2023-01-01T01:57:36;96663.00;;;3.41;94.26
7834;BME280;3962;42.696;23.354;2023-01-01T02:00:07;96670.25;;;3.36;94.19
7834;BME280;3962;42.696;23.354;2023-01-01T02:02:37;96674.16;;;3.27;94.49
7834;BME280;3962;42.696;23.354;2023-01-01T02:05:05;96678.28;;;3.33;95.17
7834;BME280;3962;42.696;23.354;2023-01-01T02:07:33;96669.13;;;3.23;95.17
7834;BME280;3962;42.696;23.354;2023-01-01T02:10:00;96666.38;;;3.06;94.74
7834;BME280;3962;42.696;23.354;2023-01-01T02:12:28;96666.59;;;3.01;95.53
7834;BME280;3962;42.696;23.354;2023-01-01T02:14:55;96667.72;;;2.96;95.29
7834;BME280;3962;42.696;23.354;2023-01-01T02:17:26;96672.25;;;2.92;94.70
7834;BME280;3962;42.696;23.354;2023-01-01T02:20:10;96672.47;;;2.88;94.62
7834;BME280;3962;42.696;23.354;2023-01-01T02:23:01;96676.38;;;2.98;95.07
7834;BME280;3962;42.696;23.354;2023-01-01T02:25:40;96674.94;;;2.91;94.48
7834;BME280;3962;42.696;23.354;2023-01-01T02:28:20;96677.00;;;2.84;94.73
7834;BME280;3962;42.696;23.354;2023-01-01T02:30:52;96678.91;;;2.81;95.21
7834;BME280;3962;42.696;23.354;2023-01-01T02:33:23;96673.38;;;2.87;95.13
7834;BME280;3962;42.696;23.354;2023-01-01T02:35:52;96675.41;;;3.00;95.81
7834;BME280;3962;42.696;23.354;2023-01-01T02:38:24;96682.03;;;3.09;95.59
7834;BME280;3962;42.696;23.354;2023-01-01T02:40:56;96676.06;;;3.05;95.34
7834;BME280;3962;42.696;23.354;2023-01-01T02:43:25;96677.03;;;3.03;94.88
7834;BME280;3962;42.696;23.354;2023-01-01T02:45:54;96673.34;;;3.07;95.22
7834;BME280;3962;42.696;23.354;2023-01-01T02:48:40;96678.81;;;3.02;94.81
7834;BME280;3962;42.696;23.354;2023-01-01T02:51:18;96672.72;;;3.02;94.63
7834;BME280;3962;42.696;23.354;2023-01-01T02:53:51;96677.25;;;2.98;94.46
7834;BME280;3962;42.696;23.354;2023-01-01T02:56:29;96676.59;;;2.93;94.59
7834;BME280;3962;42.696;23.354;2023-01-01T02:59:09;96662.94;;;2.85;94.91
7834;BME280;3962;42.696;23.354;2023-01-01T03:02:03;96658.88;;;2.78;95.12
7834;BME280;3962;42.696;23.354;2023-01-01T03:04:44;96662.16;;;2.83;95.70
7834;BME280;3962;42.696;23.354;2023-01-01T03:07:19;96663.66;;;2.89;96.23
7834;BME280;3962;42.696;23.354;2023-01-01T03:09:58;96677.31;;;2.97;95.98
7834;BME280;3962;42.696;23.354;2023-01-01T03:12:30;96677.25;;;2.98;95.72
7834;BME280;3962;42.696;23.354;2023-01-01T03:15:09;96675.13;;;3.06;95.92
7834;BME280;3962;42.696;23.354;2023-01-01T03:17:45;96678.88;;;3.01;95.07
7834;BME280;3962;42.696;23.354;2023-01-01T03:20:18;96676.97;;;3.04;95.35
7834;BME280;3962;42.696;23.354;2023-01-01T03:22:49;96682.50;;;2.98;95.53
7834;BME280;3962;42.696;23.354;2023-01-01T03:25:21;96678.78;;;2.84;94.38
7834;BME280;3962;42.696;23.354;2023-01-01T03:27:51;96667.03;;;2.72;94.96
7834;BME280;3962;42.696;23.354;2023-01-01T03:30:21;96670.84;;;2.65;94.75
7834;BME280;3962;42.696;23.354;2023-01-01T03:32:53;96667.56;;;2.60;94.82
7834;BME280;3962;42.696;23.354;2023-01-01T03:35:33;96660.41;;;2.44;94.90
7834;BME280;3962;42.696;23.354;2023-01-01T03:38:02;96676.75;;;2.50;94.98
7834;BME280;3962;42.696;23.354;2023-01-01T03:40:33;96673.00;;;2.56;95.00
7834;BME280;3962;42.696;23.354;2023-01-01T03:43:06;96671.13;;;2.59;94.49
7834;BME280;3962;42.696;23.354;2023-01-01T03:45:37;96669.09;;;2.46;94.64
7834;BME280;3962;42.696;23.354;2023-01-01T03:48:08;96670.56;;;2.31;94.98
7834;BME280;3962;42.696;23.354;2023-01-01T03:50:42;96664.94;;;2.20;95.31
7834;BME280;3962;42.696;23.354;2023-01-01T03:53:18;96668.47;;;2.19;95.75
7834;BME280;3962;42.696;23.354;2023-01-01T03:55:49;96665.91;;;2.18;96.37
7834;BME280;3962;42.696;23.354;2023-01-01T03:58:23;96678.25;;;2.16;96.58
7834;BME280;3962;42.696;23.354;2023-01-01T04:00:55;96673.91;;;2.15;96.80
7834;BME280;3962;42.696;23.354;2023-01-01T04:03:28;96676.00;;;2.07;96.27
7834;BME280;3962;42.696;23.354;2023-01-01T04:05:56;96672.06;;;1.97;96.54
7834;BME280;3962;42.696;23.354;2023-01-01T04:08:23;96670.50;;;1.91;97.36
7834;BME280;3962;42.696;23.354;2023-01-01T04:10:52;96674.50;;;2.01;97.52
7834;BME280;3962;42.696;23.354;2023-01-01T04:13:20;96672.22;;;2.14;97.61
7834;BME280;3962;42.696;23.354;2023-01-01T04:15:47;96678.91;;;2.21;97.45
7834;BME280;3962;42.696;23.354;2023-01-01T04:18:14;96674.50;;;2.21;97.00
7834;BME280;3962;42.696;23.354;2023-01-01T04:20:42;96689.53;;;2.18;97.06
7834;BME280;3962;42.696;23.354;2023-01-01T04:23:09;96677.38;;;2.15;96.45
7834;BME280;3962;42.696;23.354;2023-01-01T04:25:35;96678.19;;;2.17;96.63
7834;BME280;3962;42.696;23.354;2023-01-01T04:28:03;96670.81;;;2.05;95.88
7834;BME280;3962;42.696;23.354;2023-01-01T04:30:29;96678.50;;;2.10;95.12
7834;BME280;3962;42.696;23.354;2023-01-01T04:32:56;96681.13;;;2.10;95.37
7834;BME280;3962;42.696;23.354;2023-01-01T04:35:23;96691.75;;;2.07;95.28
7834;BME280;3962;42.696;23.354;2023-01-01T04:37:51;96670.41;;;1.94;95.49
7834;BME280;3962;42.696;23.354;2023-01-01T04:40:18;96679.66;;;2.03;95.59
7834;BME280;3962;42.696;23.354;2023-01-01T04:42:45;96684.25;;;1.98;94.91
7834;BME280;3962;42.696;23.354;2023-01-01T04:45:11;96681.63;;;1.98;95.85
7834;BME280;3962;42.696;23.354;2023-01-01T04:47:39;96650.09;;;1.78;95.54
7834;BME280;3962;42.696;23.354;2023-01-01T04:50:07;96682.91;;;1.88;95.63
7834;BME280;3962;42.696;23.354;2023-01-01T04:52:34;96678.72;;;1.84;95.14
7834;BME280;3962;42.696;23.354;2023-01-01T04:55:02;96684.59;;;1.89;95.23
7834;BME280;3962;42.696;23.354;2023-01-01T04:57:29;96682.16;;;1.84;96.01
7834;BME280;3962;42.696;23.354;2023-01-01T04:59:56;96683.00;;;1.86;96.84
7834;BME280;3962;42.696;23.354;2023-01-01T05:02:23;96664.59;;;1.65;96.84
7834;BME280;3962;42.696;23.354;2023-01-01T05:04:50;96687.91;;;1.51;97.27
7834;BME280;3962;42.696;23.354;2023-01-01T05:07:16;96678.94;;;1.35;98.02
7834;BME280;3962;42.696;23.354;2023-01-01T05:09:43;96694.66;;;1.35;97.49
7834;BME280;3962;42.696;23.354;2023-01-01T05:12:12;96697.03;;;1.41;97.85
7834;BME280;3962;42.696;23.354;2023-01-01T05:14:39;96677.16;;;1.35;99.11
7834;BME280;3962;42.696;23.354;2023-01-01T05:17:05;96696.94;;;1.44;98.32
7834;BME280;3962;42.696;23.354;2023-01-01T05:19:32;96691.56;;;1.47;98.12
7834;BME280;3962;42.696;23.354;2023-01-01T05:21:59;96691.56;;;1.47;97.69
7834;BME280;3962;42.696;23.354;2023-01-01T05:24:26;96698.78;;;1.42;98.61
7834;BME280;3962;42.696;23.354;2023-01-01T05:26:52;96701.22;;;1.46;98.19
7834;BME280;3962;42.696;23.354;2023-01-01T05:29:21;96695.16;;;1.44;97.91
7834;BME280;3962;42.696;23.354;2023-01-01T05:31:48;96699.66;;;1.41;97.74
7834;BME280;3962;42.696;23.354;2023-01-01T05:34:15;96703.16;;;1.41;97.02
7834;BME280;3962;42.696;23.354;2023-01-01T05:36:42;96705.72;;;1.43;96.99
7834;BME280;3962;42.696;23.354;2023-01-01T05:39:10;96704.50;;;1.51;98.02
7834;BME280;3962;42.696;23.354;2023-01-01T05:41:38;96713.75;;;1.61;97.34
7834;BME280;3962;42.696;23.354;2023-01-01T05:44:05;96700.72;;;1.58;97.73
7834;BME280;3962;42.696;23.354;2023-01-01T05:46:35;96700.63;;;1.61;97.54
7834;BME280;3962;42.696;23.354;2023-01-01T05:49:02;96697.88;;;1.64;97.30
7834;BME280;3962;42.696;23.354;2023-01-01T05:51:29;96702.75;;;1.73;97.89
7834;BME280;3962;42.696;23.354;2023-01-01T05:53:57;96694.16;;;1.70;98.40
7834;BME280;3962;42.696;23.354;2023-01-01T05:56:24;96701.50;;;1.60;98.23
7834;BME280;3962;42.696;23.354;2023-01-01T05:58:51;96704.41;;;1.54;99.32
7834;BME280;3962;42.696;23.354;2023-01-01T06:01:20;96704.31;;;1.56;99.51
7834;BME280;3962;42.696;23.354;2023-01-01T06:03:49;96700.69;;;1.60;99.42
7834;BME280;3962;42.696;23.354;2023-01-01T06:06:17;96704.50;;;1.73;99.44
7834;BME280;3962;42.696;23.354;2023-01-01T06:08:48;96699.34;;;1.71;99.68
7834;BME280;3962;42.696;23.354;2023-01-01T06:11:15;96707.25;;;1.70;98.91
7834;BME280;3962;42.696;23.354;2023-01-01T06:13:42;96708.88;;;1.74;98.35
7834;BME280;3962;42.696;23.354;2023-01-01T06:16:09;96710.81;;;1.69;98.01
7834;BME280;3962;42.696;23.354;2023-01-01T06:18:37;96720.59;;;1.64;97.25
7834;BME280;3962;42.696;23.354;2023-01-01T06:21:06;96712.00;;;1.60;97.53
7834;BME280;3962;42.696;23.354;2023-01-01T06:23:33;96726.59;;;1.67;97.53
7834;BME280;3962;42.696;23.354;2023-01-01T06:26:07;96716.28;;;1.63;96.62
7834;BME280;3962;42.696;23.354;2023-01-01T06:28:35;96723.88;;;1.70;96.54
7834;BME280;3962;42.696;23.354;2023-01-01T06:31:04;96720.97;;;1.76;95.88
7834;BME280;3962;42.696;23.354;2023-01-01T06:33:31;96721.34;;;1.89;96.90
7834;BME280;3962;42.696;23.354;2023-01-01T06:35:58;96716.78;;;1.94;95.67
7834;BME280;3962;42.696;23.354;2023-01-01T06:38:29;96734.69;;;2.06;95.11
7834;BME280;3962;42.696;23.354;2023-01-01T06:40:56;96725.56;;;1.93;94.46
7834;BME280;3962;42.696;23.354;2023-01-01T06:43:23;96739.97;;;1.83;94.43
7834;BME280;3962;42.696;23.354;2023-01-01T06:45:59;96733.59;;;1.90;95.16
7834;BME280;3962;42.696;23.354;2023-01-01T06:48:27;96734.19;;;1.96;94.40
7834;BME280;3962;42.696;23.354;2023-01-01T06:50:54;96747.25;;;1.98;94.83
7834;BME280;3962;42.696;23.354;2023-01-01T06:53:22;96746.00;;;2.06;95.02
7834;BME280;3962;42.696;23.354;2023-01-01T06:55:51;96750.34;;;2.07;93.80
7834;BME280;3962;42.696;23.354;2023-01-01T06:58:18;96752.78;;;2.12;93.91
7834;BME280;3962;42.696;23.354;2023-01-01T07:00:44;96754.75;;;2.07;94.13
7834;BME280;3962;42.696;23.354;2023-01-01T07:03:11;96751.22;;;2.08;93.70
7834;BME280;3962;42.696;23.354;2023-01-01T07:05:38;96760.22;;;2.22;94.15
7834;BME280;3962;42.696;23.354;2023-01-01T07:08:05;96761.31;;;2.38;93.94
7834;BME280;3962;42.696;23.354;2023-01-01T07:10:32;96757.47;;;2.47;94.06
7834;BME280;3962;42.696;23.354;2023-01-01T07:13:00;96745.41;;;2.63;94.12
7834;BME280;3962;42.696;23.354;2023-01-01T07:15:27;96756.16;;;2.57;93.94
7834;BME280;3962;42.696;23.354;2023-01-01T07:17:53;96745.91;;;2.51;94.04
7834;BME280;3962;42.696;23.354;2023-01-01T07:20:20;96763.38;;;2.52;92.97
7834;BME280;3962;42.696;23.354;2023-01-01T07:22:47;96760.09;;;2.47;92.87
7834;BME280;3962;42.696;23.354;2023-01-01T07:25:14;96751.16;;;2.51;92.63
7834;BME280;3962;42.696;23.354;2023-01-01T07:27:41;96741.72;;;2.47;93.20
7834;BME280;3962;42.696;23.354;2023-01-01T07:30:10;96757.13;;;2.54;93.61
7834;BME280;3962;42.696;23.354;2023-01-01T07:32:36;96757.03;;;2.57;93.33
7834;BME280;3962;42.696;23.354;2023-01-01T07:35:04;96761.13;;;2.64;94.02
7834;BME280;3962;42.696;23.354;2023-01-01T07:37:31;96761.66;;;2.72;93.88
7834;BME280;3962;42.696;23.354;2023-01-01T07:39:57;96759.66;;;2.77;92.91
7834;BME280;3962;42.696;23.354;2023-01-01T07:42:24;96767.47;;;2.79;92.43
7834;BME280;3962;42.696;23.354;2023-01-01T07:44:51;96760.38;;;2.81;92.47
7834;BME280;3962;42.696;23.354;2023-01-01T07:47:21;96757.41;;;2.68;91.41
7834;BME280;3962;42.696;23.354;2023-01-01T07:49:49;96759.00;;;2.72;91.73
7834;BME280;3962;42.696;23.354;2023-01-01T07:52:16;96759.75;;;2.76;91.72
7834;BME280;3962;42.696;23.354;2023-01-01T07:54:43;96756.78;;;2.83;91.52
7834;BME280;3962;42.696;23.354;2023-01-01T07:57:10;96765.31;;;2.88;91.93
7834;BME280;3962;42.696;23.354;2023-01-01T07:59:37;96760.97;;;2.87;91.31
7834;BME280;3962;42.696;23.354;2023-01-01T08:02:04;96757.31;;;2.91;91.18
7834;BME280;3962;42.696;23.354;2023-01-01T08:04:32;96761.84;;;3.08;91.69
7834;BME280;3962;42.696;23.354;2023-01-01T08:06:59;96761.16;;;3.23;91.09
7834;BME280;3962;42.696;23.354;2023-01-01T08:09:26;96763.53;;;3.47;91.10
7834;BME280;3962;42.696;23.354;2023-01-01T08:11:52;96763.84;;;3.59;89.64
7834;BME280;3962;42.696;23.354;2023-01-01T08:14:19;96776.44;;;3.71;89.56
7834;BME280;3962;42.696;23.354;2023-01-01T08:16:46;96780.25;;;4.20;89.50
7834;BME280;3962;42.696;23.354;2023-01-01T08:19:13;96786.63;;;5.36;87.21
7834;BME280;3962;42.696;23.354;2023-01-01T08:21:41;96773.75;;;6.57;82.29
7834;BME280;3962;42.696;23.354;2023-01-01T08:24:08;96774.47;;;7.33;77.06
7834;BME280;3962;42.696;23.354;2023-01-01T08:26:35;96776.97;;;7.64;74.88
7834;BME280;3962;42.696;23.354;2023-01-01T08:29:04;96774.41;;;7.91;73.54
7834;BME280;3962;42.696;23.354;2023-01-01T08:31:31;96778.78;;;8.20;72.19
7834;BME280;3962;42.696;23.354;2023-01-01T08:33:58;96769.97;;;8.19;71.67
7834;BME280;3962;42.696;23.354;2023-01-01T08:36:25;96777.41;;;8.41;70.21
7834;BME280;3962;42.696;23.354;2023-01-01T08:38:53;96779.97;;;8.42;70.95
7834;BME280;3962;42.696;23.354;2023-01-01T08:41:20;96773.34;;;8.35;70.48
7834;BME280;3962;42.696;23.354;2023-01-01T08:43:47;96772.16;;;7.99;70.69
7834;BME280;3962;42.696;23.354;2023-01-01T08:46:14;96777.72;;;7.80;72.58
7834;BME280;3962;42.696;23.354;2023-01-01T08:48:41;96770.81;;;7.92;71.95
7834;BME280;3962;42.696;23.354;2023-01-01T08:51:08;96744.22;;;7.65;71.37
7834;BME280;3962;42.696;23.354;2023-01-01T08:53:36;96765.22;;;7.82;71.83
7834;BME280;3962;42.696;23.354;2023-01-01T08:56:06;96769.88;;;8.07;70.91
7834;BME280;3962;42.696;23.354;2023-01-01T08:58:34;96773.25;;;8.09;69.95
7834;BME280;3962;42.696;23.354;2023-01-01T09:01:01;96774.22;;;8.08;69.67
7834;BME280;3962;42.696;23.354;2023-01-01T09:03:28;96773.28;;;8.23;70.11
7834;BME280;3962;42.696;23.354;2023-01-01T09:05:55;96766.75;;;8.14;69.57
7834;BME280;3962;42.696;23.354;2023-01-01T09:08:22;96756.63;;;8.21;70.01
7834;BME280;3962;42.696;23.354;2023-01-01T09:10:49;96758.63;;;8.58;69.26
7834;BME280;3962;42.696;23.354;2023-01-01T09:13:19;96764.09;;;9.08;68.05
7834;BME280;3962;42.696;23.354;2023-01-01T09:15:46;96760.88;;;9.03;67.01
7834;BME280;3962;42.696;23.354;2023-01-01T09:18:13;96739.22;;;8.96;67.40
7834;BME280;3962;42.696;23.354;2023-01-01T09:20:40;96744.97;;;9.15;66.74
7834;BME280;3962;42.696;23.354;2023-01-01T09:23:07;96737.50;;;8.95;67.28
7834;BME280;3962;42.696;23.354;2023-01-01T09:25:34;96742.19;;;8.92;68.20
7834;BME280;3962;42.696;23.354;2023-01-01T09:28:02;96730.94;;;8.62;68.39
7834;BME280;3962;42.696;23.354;2023-01-01T09:30:31;96732.66;;;8.49;69.34
7834;BME280;3962;42.696;23.354;2023-01-01T09:32:57;96729.22;;;8.34;70.04
7834;BME280;3962;42.696;23.354;2023-01-01T09:35:24;96713.34;;;8.20;70.54
7834;BME280;3962;42.696;23.354;2023-01-01T09:37:51;96730.13;;;8.47;70.49
7834;BME280;3962;42.696;23.354;2023-01-01T09:40:27;96716.56;;;8.25;70.42
7834;BME280;3962;42.696;23.354;2023-01-01T09:43:03;96728.28;;;8.21;71.19
7834;BME280;3962;42.696;23.354;2023-01-01T09:45:37;96721.00;;;8.25;70.80
7834;BME280;3962;42.696;23.354;2023-01-01T09:48:10;96710.88;;;8.17;70.84
7834;BME280;3962;42.696;23.354;2023-01-01T09:50:40;96717.69;;;8.21;71.59
7834;BME280;3962;42.696;23.354;2023-01-01T09:53:12;96715.22;;;8.18;71.47
7834;BME280;3962;42.696;23.354;2023-01-01T09:55:45;96707.19;;;8.06;72.64
7834;BME280;3962;42.696;23.354;2023-01-01T09:58:14;96707.34;;;8.17;72.26
7834;BME280;3962;42.696;23.354;2023-01-01T10:00:45;96708.31;;;8.16;72.05
7834;BME280;3962;42.696;23.354;2023-01-01T10:03:26;96704.25;;;8.10;72.58
7834;BME280;3962;42.696;23.354;2023-01-01T10:05:59;96707.47;;;8.15;73.11
7834;BME280;3962;42.696;23.354;2023-01-01T10:08:36;96705.22;;;8.23;72.96
7834;BME280;3962;42.696;23.354;2023-01-01T10:11:13;96705.34;;;8.34;72.79
7834;BME280;3962;42.696;23.354;2023-01-01T10:13:44;96698.56;;;8.30;73.36
7834;BME280;3962;42.696;23.354;2023-01-01T10:16:16;96691.06;;;8.37;73.22
7834;BME280;3962;42.696;23.354;2023-01-01T10:18:52;96694.34;;;8.40;73.11
7834;BME280;3962;42.696;23.354;2023-01-01T10:21:22;96686.84;;;8.47;73.18
7834;BME280;3962;42.696;23.354;2023-01-01T10:23:53;96688.03;;;8.55;72.89
7834;BME280;3962;42.696;23.354;2023-01-01T10:26:24;96687.56;;;8.49;73.22
7834;BME280;3962;42.696;23.354;2023-01-01T10:28:57;96699.13;;;8.48;73.17
7834;BME280;3962;42.696;23.354;2023-01-01T10:31:31;96678.59;;;8.64;73.51
7834;BME280;3962;42.696;23.354;2023-01-01T10:34:11;96674.41;;;8.74;72.82
7834;BME280;3962;42.696;23.354;2023-01-01T10:36:38;96676.63;;;8.80;72.55
7834;BME280;3962;42.696;23.354;2023-01-01T10:39:04;96675.19;;;8.88;72.76
7834;BME280;3962;42.696;23.354;2023-01-01T10:41:31;96663.06;;;8.84;73.03
7834;BME280;3962;42.696;23.354;2023-01-01T10:43:58;96663.50;;;8.78;73.71
7834;BME280;3962;42.696;23.354;2023-01-01T10:46:26;96659.91;;;8.92;74.09
7834;BME280;3962;42.696;23.354;2023-01-01T10:49:06;96656.59;;;9.01;73.28
7834;BME280;3962;42.696;23.354;2023-01-01T10:51:36;96651.06;;;9.04;73.07
7834;BME280;3962;42.696;23.354;2023-01-01T10:54:03;96643.03;;;9.18;74.56
7834;BME280;3962;42.696;23.354;2023-01-01T10:56:38;96639.38;;;9.69;75.40
7834;BME280;3962;42.696;23.354;2023-01-01T10:59:31;96641.09;;;9.93;72.78
7834;BME280;3962;42.696;23.354;2023-01-01T11:02:14;96628.09;;;10.01;70.83
7834;BME280;3962;42.696;23.354;2023-01-01T11:04:42;96629.59;;;9.69;71.38
7834;BME280;3962;42.696;23.354;2023-01-01T11:07:17;96622.28;;;9.48;72.42
7834;BME280;3962;42.696;23.354;2023-01-01T11:09:47;96618.25;;;9.42;73.15
7834;BME280;3962;42.696;23.354;2023-01-01T11:12:18;96613.59;;;9.46;73.07
7834;BME280;3962;42.696;23.354;2023-01-01T11:14:50;96616.13;;;9.47;73.06
7834;BME280;3962;42.696;23.354;2023-01-01T11:17:22;96617.06;;;9.46;73.42
7834;BME280;3962;42.696;23.354;2023-01-01T11:19:52;96605.16;;;9.52;73.70
7834;BME280;3962;42.696;23.354;2023-01-01T11:22:40;96595.94;;;9.57;73.26
7834;BME280;3962;42.696;23.354;2023-01-01T11:25:25;96593.59;;;9.53;73.33
7834;BME280;3962;42.696;23.354;2023-01-01T11:28:17;96605.91;;;9.66;73.14
7834;BME280;3962;42.696;23.354;2023-01-01T11:30:57;96594.06;;;9.70;73.23
7834;BME280;3962;42.696;23.354;2023-01-01T11:33:26;96594.38;;;9.78;73.16
7834;BME280;3962;42.696;23.354;2023-01-01T11:35:56;96597.78;;;9.80;73.17
7834;BME280;3962;42.696;23.354;2023-01-01T11:38:24;96587.88;;;9.82;72.76
7834;BME280;3962;42.696;23.354;2023-01-01T11:40:52;96581.50;;;9.85;72.91
7834;BME280;3962;42.696;23.354;2023-01-01T11:43:22;96578.72;;;9.86;72.78
7834;BME280;3962;42.696;23.354;2023-01-01T11:45:51;96581.31;;;9.99;72.66
7834;BME280;3962;42.696;23.354;2023-01-01T11:48:24;96576.88;;;9.99;72.54
7834;BME280;3962;42.696;23.354;2023-01-01T11:50:53;96576.22;;;9.96;72.68
7834;BME280;3962;42.696;23.354;2023-01-01T11:53:29;96567.91;;;10.00;72.87
7834;BME280;3962;42.696;23.354;2023-01-01T11:56:02;96563.03;;;10.07;72.36
7834;BME280;3962;42.696;23.354;2023-01-01T11:58:39;96562.56;;;10.13;72.51
7834;BME280;3962;42.696;23.354;2023-01-01T12:01:12;96567.06;;;10.12;72.63
7834;BME280;3962;42.696;23.354;2023-01-01T12:03:43;96565.97;;;10.15;72.13
7834;BME280;3962;42.696;23.354;2023-01-01T12:06:17;96566.47;;;10.20;72.48
7834;BME280;3962;42.696;23.354;2023-01-01T12:08:50;96567.00;;;10.25;72.30
7834;BME280;3962;42.696;23.354;2023-01-01T12:11:23;96563.75;;;10.32;72.25
7834;BME280;3962;42.696;23.354;2023-01-01T12:13:56;96558.44;;;10.32;72.09
7834;BME280;3962;42.696;23.354;2023-01-01T12:16:35;96553.53;;;10.39;72.50
7834;BME280;3962;42.696;23.354;2023-01-01T12:19:09;96557.03;;;10.50;71.86
7834;BME280;3962;42.696;23.354;2023-01-01T12:21:38;96548.84;;;10.53;71.69
7834;BME280;3962;42.696;23.354;2023-01-01T12:24:10;96541.13;;;10.61;71.57
7834;BME280;3962;42.696;23.354;2023-01-01T12:26:48;96539.06;;;10.65;71.50
7834;BME280;3962;42.696;23.354;2023-01-01T12:29:39;96537.91;;;10.80;70.97
7834;BME280;3962;42.696;23.354;2023-01-01T12:32:17;96534.63;;;10.87;70.78
7834;BME280;3962;42.696;23.354;2023-01-01T12:34:54;96541.06;;;10.95;70.36
7834;BME280;3962;42.696;23.354;2023-01-01T12:37:36;96522.53;;;11.05;70.54
7834;BME280;3962;42.696;23.354;2023-01-01T12:40:40;96537.19;;;11.21;70.15
7834;BME280;3962;42.696;23.354;2023-01-01T12:43:10;96542.06;;;11.27;69.69
7834;BME280;3962;42.696;23.354;2023-01-01T12:45:54;96545.31;;;11.42;69.42
7834;BME280;3962;42.696;23.354;2023-01-01T12:48:36;96543.59;;;11.52;68.65
7834;BME280;3962;42.696;23.354;2023-01-01T12:51:17;96544.25;;;11.66;68.92
7834;BME280;3962;42.696;23.354;2023-01-01T12:53:50;96549.66;;;11.76;68.47
7834;BME280;3962;42.696;23.354;2023-01-01T12:56:27;96544.94;;;11.79;67.60
7834;BME280;3962;42.696;23.354;2023-01-01T12:59:01;96539.00;;;11.87;67.44
7834;BME280;3962;42.696;23.354;2023-01-01T13:01:32;96538.72;;;12.01;67.33
7834;BME280;3962;42.696;23.354;2023-01-01T13:04:02;96531.25;;;12.15;66.86
7834;BME280;3962;42.696;23.354;2023-01-01T13:06:37;96533.44;;;12.21;66.34
7834;BME280;3962;42.696;23.354;2023-01-01T13:09:09;96530.50;;;12.24;66.72
7834;BME280;3962;42.696;23.354;2023-01-01T13:11:39;96527.13;;;12.22;66.03
7834;BME280;3962;42.696;23.354;2023-01-01T13:14:06;96528.09;;;12.21;66.34
7834;BME280;3962;42.696;23.354;2023-01-01T13:16:35;96527.72;;;12.15;66.21
7834;BME280;3962;42.696;23.354;2023-01-01T13:19:04;96528.97;;;12.11;66.86
7834;BME280;3962;42.696;23.354;2023-01-01T13:21:31;96532.13;;;12.05;67.15
7834;BME280;3962;42.696;23.354;2023-01-01T13:24:02;96533.72;;;12.07;66.72
7834;BME280;3962;42.696;23.354;2023-01-01T13:29:44;96529.09;;;12.09;67.01
7834;BME280;3962;42.696;23.354;2023-01-01T13:32:13;96536.25;;;12.09;66.82
7834;BME280;3962;42.696;23.354;2023-01-01T13:37:29;96527.13;;;12.11;66.50
7834;BME280;3962;42.696;23.354;2023-01-01T13:39:57;96534.44;;;12.09;66.56
7834;BME280;3962;42.696;23.354;2023-01-01T13:42:38;96529.47;;;12.05;67.14